createdAt,value
2023-02-18T00:00:57.900Z,101179.16
2023-02-18T00:03:27.936Z,101184.69
2023-02-18T00:05:55.969Z,101181.00
2023-02-18T00:08:23.916Z,101176.88
2023-02-18T00:10:51.679Z,101185.53
2023-02-18T00:13:19.314Z,101171.94
2023-02-18T00:15:47.113Z,101171.94
2023-02-18T00:18:14.778Z,101164.47
2023-02-18T00:20:43.834Z,101164.03
2023-02-18T00:23:11.724Z,101153.97
2023-02-18T00:25:39.616Z,101160.50
2023-02-18T00:28:07.270Z,101176.41
2023-02-18T00:30:34.949Z,101161.31
2023-02-18T00:33:02.666Z,101157.50
2023-02-18T00:35:30.759Z,101155.38
2023-02-18T00:37:59.818Z,101146.78
2023-02-18T00:40:27.580Z,101149.78
2023-02-18T00:42:55.238Z,101142.25
2023-02-18T00:45:22.894Z,101141.84
2023-02-18T00:47:50.535Z,101145.63
2023-02-18T00:50:18.369Z,101138.81
2023-02-18T00:52:46.133Z,101138.66
2023-02-18T00:55:15.580Z,101145.03
2023-02-18T00:57:43.232Z,101132.91
2023-02-18T01:00:11.889Z,101135.81
2023-02-18T01:02:39.549Z,101137.88
2023-02-18T01:05:07.355Z,101132.53
2023-02-18T01:07:35.034Z,101129.69
2023-02-18T01:10:02.912Z,101121.81
2023-02-18T01:12:31.998Z,101123.09
2023-02-18T01:14:59.700Z,101114.44
2023-02-18T01:17:27.804Z,101116.88
2023-02-18T01:19:55.919Z,101119.38
2023-02-18T01:22:23.793Z,101122.69
2023-02-18T01:24:51.503Z,101113.22
2023-02-18T01:27:19.251Z,101117.75
2023-02-18T01:29:48.324Z,101113.00
2023-02-18T01:32:16.170Z,101119.38
2023-02-18T01:34:44.012Z,101113.63
2023-02-18T01:37:11.672Z,101108.25
2023-02-18T01:39:39.768Z,101107.03
2023-02-18T01:42:08.063Z,101104.56
2023-02-18T01:44:36.039Z,101097.13
2023-02-18T01:47:05.196Z,101109.72
2023-02-18T01:49:35.671Z,101102.94
2023-02-18T01:52:05.508Z,101105.78
2023-02-18T01:54:35.335Z,101104.16
2023-02-18T01:57:04.759Z,101103.34
2023-02-18T01:59:34.563Z,101103.72
2023-02-18T02:02:02.338Z,101100.03
2023-02-18T02:04:31.486Z,101094.25
2023-02-18T02:06:59.361Z,101078.97
2023-02-18T02:09:29.120Z,101069.09
2023-02-18T02:12:10.461Z,101073.22
2023-02-18T02:14:52.446Z,101060.41
2023-02-18T02:17:25.894Z,101063.31
2023-02-18T02:20:24.724Z,101050.09
2023-02-18T02:23:08.363Z,101056.50
2023-02-18T02:25:51.378Z,101058.97
2023-02-18T02:28:38.182Z,101057.94
2023-02-18T02:31:24.884Z,101046.00
2023-02-18T02:34:34.845Z,101052.59
2023-02-18T02:37:08.965Z,101035.28
2023-02-18T02:39:41.925Z,101035.47
2023-02-18T02:42:14.563Z,101024.94
2023-02-18T02:44:49.201Z,101027.00
2023-02-18T02:47:22.698Z,101017.72
2023-02-18T02:49:56.851Z,101017.91
2023-02-18T02:52:29.113Z,101001.19
2023-02-18T02:54:56.857Z,101003.88
2023-02-18T02:57:44.893Z,100990.50
2023-02-18T03:00:13.811Z,100987.41
2023-02-18T03:02:50.390Z,100987.81
2023-02-18T03:05:28.219Z,100980.78
2023-02-18T03:08:10.579Z,100977.50
2023-02-18T03:10:46.550Z,100976.06
2023-02-18T03:13:20.189Z,100971.72
2023-02-18T03:15:51.997Z,100954.81
2023-02-18T03:18:24.763Z,100954.81
2023-02-18T03:20:56.468Z,100951.53
2023-02-18T03:23:28.896Z,100944.09
2023-02-18T03:25:57.883Z,100931.50
2023-02-18T03:28:28.628Z,100936.66
2023-02-18T03:30:59.686Z,100934.19
2023-02-18T03:33:30.104Z,100926.75
2023-02-18T03:35:59.411Z,100920.59
2023-02-18T03:38:30.693Z,100921.41
2023-02-18T03:40:58.444Z,100914.81
2023-02-18T03:43:26.156Z,100902.00
2023-02-18T03:45:53.878Z,100910.66
2023-02-18T03:48:22.248Z,100910.47
2023-02-18T03:50:49.933Z,100904.50
2023-02-18T03:53:19.072Z,100889.63
2023-02-18T03:55:46.747Z,100888.00
2023-02-18T03:58:14.493Z,100882.22
2023-02-18T04:00:42.457Z,100887.38
2023-02-18T04:03:10.181Z,100879.09
2023-02-18T04:05:37.863Z,100883.88
2023-02-18T04:08:05.707Z,100879.13
2023-02-18T04:10:34.993Z,100875.00
2023-02-18T04:13:02.855Z,100873.34
2023-02-18T04:15:30.635Z,100861.78
2023-02-18T04:17:58.307Z,100859.31
2023-02-18T04:20:26.006Z,100854.97
2023-02-18T04:22:53.909Z,100855.22
2023-02-18T04:25:21.606Z,100848.78
2023-02-18T04:27:50.703Z,100851.88
2023-02-18T04:30:19.071Z,100854.16
2023-02-18T04:32:46.851Z,100842.59
2023-02-18T04:35:14.685Z,100837.69
2023-02-18T04:37:42.491Z,100838.06
2023-02-18T04:40:10.822Z,100836.44
2023-02-18T04:42:38.658Z,100839.50
2023-02-18T04:45:08.638Z,100832.31
2023-02-18T04:47:36.338Z,100833.56
2023-02-18T04:50:04.426Z,100831.50
2023-02-18T04:52:32.116Z,100820.34
2023-02-18T04:55:00.451Z,100812.50
2023-02-18T04:57:28.193Z,100817.22
2023-02-18T04:59:55.897Z,100821.78
2023-02-18T05:02:25.263Z,100815.78
2023-02-18T05:04:53.110Z,100811.84
2023-02-18T05:07:20.762Z,100821.56
2023-02-18T05:09:48.536Z,100808.56
2023-02-18T05:12:16.211Z,100808.16
2023-02-18T05:14:43.860Z,100800.94
2023-02-18T05:17:12.084Z,100795.59
2023-02-18T05:19:41.345Z,100789.81
2023-02-18T05:22:09.146Z,100784.44
2023-02-18T05:24:36.822Z,100778.88
2023-02-18T05:27:04.664Z,100774.78
2023-02-18T05:29:32.330Z,100753.94
2023-02-18T05:32:00.113Z,100753.94
2023-02-18T05:34:27.915Z,100751.06
2023-02-18T05:36:57.650Z,100751.84
2023-02-18T05:39:25.326Z,100743.63
2023-02-18T05:41:53.091Z,100737.06
2023-02-18T05:44:33.478Z,100743.19
2023-02-18T05:47:02.359Z,100733.06
2023-02-18T05:49:30.402Z,100729.78
2023-02-18T05:51:59.621Z,100723.56
2023-02-18T05:54:27.919Z,100716.41
2023-02-18T05:56:55.743Z,100720.09
2023-02-18T05:59:23.552Z,100713.53
2023-02-18T06:01:51.238Z,100707.97
2023-02-18T06:04:19.029Z,100705.25
2023-02-18T06:06:47.100Z,100713.94
2023-02-18T06:09:16.866Z,100710.63
2023-02-18T06:11:45.195Z,100706.50
2023-02-18T06:14:13.038Z,100717.63
2023-02-18T06:16:40.727Z,100705.28
2023-02-18T06:19:08.464Z,100706.50
2023-02-18T06:21:36.183Z,100700.31
2023-02-18T06:24:04.048Z,100707.75
2023-02-18T06:26:33.353Z,100701.78
2023-02-18T06:29:01.185Z,100685.94
2023-02-18T06:31:29.310Z,100678.91
2023-02-18T06:33:57.086Z,100684.44
2023-02-18T06:36:24.802Z,100674.81
2023-02-18T06:38:54.101Z,100690.41
2023-02-18T06:41:21.794Z,100691.66
2023-02-18T06:43:51.370Z,100688.16
2023-02-18T06:46:19.098Z,100689.22
2023-02-18T06:48:47.064Z,100683.66
2023-02-18T06:51:16.102Z,100690.06
2023-02-18T06:53:44.037Z,100691.66
2023-02-18T06:56:11.761Z,100687.13
2023-02-18T06:58:39.491Z,100688.34
2023-02-18T07:01:08.615Z,100681.31
2023-02-18T07:03:36.384Z,100676.34
2023-02-18T07:06:04.213Z,100680.06
2023-02-18T07:08:33.151Z,100661.09
2023-02-18T07:11:00.831Z,100684.00
2023-02-18T07:13:28.781Z,100673.06
2023-02-18T07:15:56.666Z,100680.66
2023-02-18T07:18:27.652Z,100675.94
2023-02-18T07:20:55.312Z,100684.00
2023-02-18T07:23:22.962Z,100673.06
2023-02-18T07:25:50.604Z,100665.28
2023-02-18T07:28:18.321Z,100676.47
2023-02-18T07:30:45.960Z,100673.38
2023-02-18T07:33:14.495Z,100678.13
2023-02-18T07:35:43.544Z,100678.72
2023-02-18T07:38:11.381Z,100660.38
2023-02-18T07:40:39.022Z,100676.47
2023-02-18T07:43:06.668Z,100677.25
2023-02-18T07:45:34.425Z,100685.34
2023-02-18T07:48:02.061Z,100682.25
2023-02-18T07:50:35.000Z,100675.88
2023-02-18T07:53:04.755Z,100675.44
2023-02-18T07:55:46.756Z,100670.69
2023-02-18T07:58:14.394Z,100679.75
2023-02-18T08:00:42.023Z,100690.06
2023-02-18T08:03:09.774Z,100691.28
2023-02-18T08:05:37.469Z,100686.34
2023-02-18T08:08:06.845Z,100687.13
2023-02-18T08:10:34.452Z,100682.44
2023-02-18T08:13:02.116Z,100688.78
2023-02-18T08:15:29.787Z,100692.53
2023-02-18T08:17:57.849Z,100687.41
2023-02-18T08:20:25.844Z,100690.06
2023-02-18T08:22:53.786Z,100695.84
2023-02-18T08:25:29.364Z,100698.69
2023-02-18T08:27:57.601Z,100694.22
2023-02-18T08:30:25.332Z,100696.19
2023-02-18T08:32:53.456Z,100684.50
2023-02-18T08:35:21.385Z,100694.63
2023-02-18T08:37:52.806Z,100682.25
2023-02-18T08:40:23.398Z,100689.81
2023-02-18T08:42:51.245Z,100680.53
2023-02-18T08:45:19.057Z,100667.34
2023-02-18T08:48:18.754Z,100672.94
2023-02-18T08:50:34.654Z,100671.69
2023-02-18T08:53:03.543Z,100664.25
2023-02-18T08:55:32.840Z,100665.28
2023-02-18T08:58:00.565Z,100657.50
2023-02-18T09:00:28.944Z,100658.53
2023-02-18T09:02:56.580Z,100671.94
2023-02-18T09:05:24.323Z,100668.44
2023-02-18T09:07:52.232Z,100670.03
2023-02-18T09:10:19.931Z,100674.34
2023-02-18T09:12:49.076Z,100674.16
2023-02-18T09:15:16.884Z,100672.53
2023-02-18T09:17:44.672Z,100673.50
2023-02-18T09:20:13.408Z,100666.03
2023-02-18T09:22:41.637Z,100675.13
2023-02-18T09:25:09.579Z,100662.75
2023-02-18T09:27:37.245Z,100682.97
2023-02-18T09:30:07.976Z,100676.53
2023-02-18T09:32:35.835Z,100659.50
2023-02-18T09:35:03.755Z,100676.81
2023-02-18T09:37:31.780Z,100674.38
2023-02-18T09:40:00.086Z,100672.34
2023-02-18T09:42:31.499Z,100679.94
2023-02-18T09:45:01.422Z,100684.28
2023-02-18T09:47:34.411Z,100678.91
2023-02-18T09:50:08.700Z,100672.34
2023-02-18T09:52:38.360Z,100679.56
2023-02-18T09:55:18.986Z,100672.47
2023-02-18T09:57:48.848Z,100678.06
2023-02-18T10:00:20.846Z,100669.59
2023-02-18T10:02:56.432Z,100665.28
2023-02-18T10:05:25.495Z,100677.00
2023-02-18T10:07:57.208Z,100679.91
2023-02-18T10:10:32.958Z,100696.00
2023-02-18T10:13:00.605Z,100696.00
2023-02-18T10:15:30.945Z,100698.44
2023-02-18T10:18:00.367Z,100693.94
2023-02-18T10:20:30.576Z,100691.03
2023-02-18T10:23:00.864Z,100696.00
2023-02-18T10:25:29.806Z,100709.16
2023-02-18T10:27:59.399Z,100703.81
2023-02-18T10:30:32.614Z,100707.53
2023-02-18T10:33:12.041Z,100706.69
2023-02-18T10:35:42.200Z,100711.88
2023-02-18T10:38:16.581Z,100708.34
2023-02-18T10:40:53.414Z,100703.63
2023-02-18T10:43:27.384Z,100708.75
2023-02-18T10:46:02.040Z,100703.81
2023-02-18T10:48:41.504Z,100715.34
2023-02-18T10:51:16.483Z,100711.25
2023-02-18T10:53:45.308Z,100689.00
2023-02-18T10:56:33.726Z,100727.72
2023-02-18T10:59:03.829Z,100734.72
2023-02-18T11:01:32.390Z,100717.81
2023-02-18T11:04:09.769Z,100719.69
2023-02-18T11:06:41.410Z,100714.53
2023-02-18T11:09:26.238Z,100715.13
2023-02-18T11:12:08.458Z,100721.75
2023-02-18T11:14:41.686Z,100718.66
2023-02-18T11:17:16.711Z,100716.56
2023-02-18T11:19:53.488Z,100717.41
2023-02-18T11:22:23.162Z,100726.84
2023-02-18T11:24:55.241Z,100721.94
2023-02-18T11:27:27.053Z,100726.88
2023-02-18T11:29:56.190Z,100721.75
2023-02-18T11:32:27.931Z,100720.50
2023-02-18T11:34:57.114Z,100711.66
2023-02-18T11:37:25.682Z,100727.72
2023-02-18T11:39:55.907Z,100721.94
2023-02-18T11:42:26.272Z,100719.25
2023-02-18T11:44:55.437Z,100712.84
2023-02-18T11:47:26.522Z,100724.63
2023-02-18T11:50:07.649Z,100737.59
2023-02-18T11:52:38.220Z,100731.81
2023-02-18T11:55:09.692Z,100727.72
2023-02-18T11:57:39.997Z,100729.16
2023-02-18T12:00:22.243Z,100722.56
2023-02-18T12:02:51.054Z,100713.31
2023-02-18T12:05:24.193Z,100720.09
2023-02-18T12:07:54.832Z,100712.06
2023-02-18T12:10:27.590Z,100707.09
2023-02-18T12:12:59.782Z,100719.47
2023-02-18T12:15:34.187Z,100718.63
2023-02-18T12:18:26.503Z,100712.38
2023-02-18T12:21:12.880Z,100721.56
2023-02-18T12:23:47.034Z,100710.84
2023-02-18T12:26:23.365Z,100718.09
2023-02-18T12:29:06.500Z,100720.09
2023-02-18T12:31:46.331Z,100720.13
2023-02-18T12:34:25.051Z,100727.34
2023-02-18T12:37:02.920Z,100735.81
2023-02-18T12:39:40.621Z,100718.28
2023-02-18T12:42:20.474Z,100726.00
2023-02-18T12:45:01.308Z,100719.75
2023-02-18T12:47:42.474Z,100721.56
2023-02-18T12:50:25.681Z,100744.03
2023-02-18T12:53:06.731Z,100740.75
2023-02-18T12:55:45.253Z,100745.31
2023-02-18T12:58:23.055Z,100742.19
2023-02-18T13:01:00.382Z,100721.34
2023-02-18T13:03:48.179Z,100734.06
2023-02-18T13:06:25.196Z,100728.44
2023-02-18T13:09:03.456Z,100717.47
2023-02-18T13:11:38.069Z,100729.22
2023-02-18T13:14:12.607Z,100745.66
2023-02-18T13:16:41.428Z,100746.56
2023-02-18T13:19:17.486Z,100723.13
2023-02-18T13:21:46.730Z,100740.81
2023-02-18T13:24:20.217Z,100739.84
2023-02-18T13:26:50.424Z,100737.97
2023-02-18T13:29:24.502Z,100739.97
2023-02-18T13:32:03.141Z,100735.81
2023-02-18T13:34:35.361Z,100737.09
2023-02-18T13:37:08.829Z,100734.81
2023-02-18T13:39:38.582Z,100744.06
2023-02-18T13:42:25.832Z,100744.50
2023-02-18T13:45:24.685Z,100746.72
2023-02-18T13:47:52.725Z,100732.59
2023-02-18T13:50:33.202Z,100741.09
2023-02-18T13:53:24.706Z,100747.69
2023-02-18T13:56:00.120Z,100744.00
2023-02-18T13:58:32.993Z,100741.53
2023-02-18T14:01:04.077Z,100755.81
2023-02-18T14:03:53.534Z,100742.56
2023-02-18T14:06:22.908Z,100733.88
2023-02-18T14:09:05.326Z,100742.56
2023-02-18T14:11:48.619Z,100742.31
2023-02-18T14:14:39.672Z,100748.28
2023-02-18T14:17:32.014Z,100748.50
2023-02-18T14:20:34.669Z,100738.63
2023-02-18T14:23:02.536Z,100753.25
2023-02-18T14:25:38.658Z,100765.69
2023-02-18T14:28:42.210Z,100757.47
2023-02-18T14:31:30.353Z,100758.91
2023-02-18T14:34:18.814Z,100751.03
2023-02-18T14:36:52.257Z,100745.84
2023-02-18T14:39:36.145Z,100742.06
2023-02-18T14:42:11.330Z,100746.59
2023-02-18T14:44:54.445Z,100753.56
2023-02-18T14:47:29.143Z,100760.47
2023-02-18T14:49:59.735Z,100758.53
2023-02-18T14:52:32.586Z,100769.78
2023-02-18T14:55:02.475Z,100763.47
2023-02-18T14:57:35.459Z,100760.56
2023-02-18T15:00:06.747Z,100777.13
2023-02-18T15:02:38.641Z,100758.97
2023-02-18T15:05:14.580Z,100764.13
2023-02-18T15:07:42.460Z,100760.13
2023-02-18T15:10:15.981Z,100767.59
2023-02-18T15:12:43.787Z,100774.88
2023-02-18T15:15:16.369Z,100768.03
2023-02-18T15:17:47.423Z,100778.91
2023-02-18T15:20:16.110Z,100768.38
2023-02-18T15:22:44.762Z,100770.47
2023-02-18T15:25:14.331Z,100773.75
2023-02-18T15:27:45.925Z,100779.28
2023-02-18T15:30:25.990Z,100774.13
2023-02-18T15:32:54.826Z,100770.03
2023-02-18T15:35:24.400Z,100776.97
2023-02-18T15:37:54.597Z,100775.41
2023-02-18T15:40:23.866Z,100770.84
2023-02-18T15:42:52.876Z,100778.25
2023-02-18T15:45:22.948Z,100780.34
2023-02-18T15:47:52.876Z,100786.72
2023-02-18T15:50:22.878Z,100792.28
2023-02-18T15:52:51.159Z,100778.25
2023-02-18T15:55:25.431Z,100775.78
2023-02-18T15:57:54.454Z,100769.19
2023-02-18T16:00:30.084Z,100776.00
2023-02-18T16:03:04.237Z,100779.91
2023-02-18T16:05:32.203Z,100782.84
2023-02-18T16:08:02.315Z,100780.59
2023-02-18T16:10:43.995Z,100786.06
2023-02-18T16:13:14.817Z,100773.78
2023-02-18T16:15:45.846Z,100794.78
2023-02-18T16:18:26.175Z,100785.97
2023-02-18T16:20:55.712Z,100796.09
2023-02-18T16:23:31.240Z,100798.56
2023-02-18T16:26:10.852Z,100794.25
2023-02-18T16:28:42.707Z,100792.34
2023-02-18T16:31:12.150Z,100792.84
2023-02-18T16:33:39.884Z,100802.31
2023-02-18T16:36:08.684Z,100791.16
2023-02-18T16:38:37.019Z,100795.09
2023-02-18T16:41:05.120Z,100786.63
2023-02-18T16:43:33.232Z,100799.44
2023-02-18T16:46:08.155Z,100799.88
2023-02-18T16:48:40.613Z,100801.09
2023-02-18T16:51:12.388Z,100801.19
2023-02-18T16:53:40.086Z,100804.63
2023-02-18T16:56:14.324Z,100806.13
2023-02-18T16:58:42.146Z,100797.88
2023-02-18T17:01:20.441Z,100797.84
2023-02-18T17:03:49.751Z,100814.34
2023-02-18T17:06:17.894Z,100800.47
2023-02-18T17:08:45.759Z,100816.38
2023-02-18T17:11:20.521Z,100812.44
2023-02-18T17:13:49.168Z,100820.13
2023-02-18T17:16:17.450Z,100825.25
2023-02-18T17:18:45.480Z,100817.22
2023-02-18T17:21:16.004Z,100824.44
2023-02-18T17:23:44.349Z,100833.13
2023-02-18T17:26:15.731Z,100835.38
2023-02-18T17:28:43.436Z,100830.34
2023-02-18T17:31:14.710Z,100824.25
2023-02-18T17:33:42.880Z,100836.63
2023-02-18T17:36:11.582Z,100846.94
2023-02-18T17:38:41.269Z,100837.88
2023-02-18T17:41:09.215Z,100841.19
2023-02-18T17:43:38.100Z,100854.59
2023-02-18T17:46:06.365Z,100848.19
2023-02-18T17:48:34.076Z,100847.16
2023-02-18T17:51:01.910Z,100854.78
2023-02-18T17:53:29.803Z,100845.72
2023-02-18T17:55:59.063Z,100853.22
2023-02-18T17:58:26.851Z,100847.91
2023-02-18T18:00:55.909Z,100854.50
2023-02-18T18:03:24.307Z,100853.50
2023-02-18T18:05:54.468Z,100848.34
2023-02-18T18:08:22.174Z,100861.38
2023-02-18T18:10:51.415Z,100855.63
2023-02-18T18:13:22.898Z,100859.53
2023-02-18T18:15:51.138Z,100858.72
2023-02-18T18:18:19.761Z,100864.09
2023-02-18T18:20:49.765Z,100865.53
2023-02-18T18:23:18.429Z,100866.13
2023-02-18T18:25:47.446Z,100874.00
2023-02-18T18:28:15.777Z,100871.28
2023-02-18T18:30:47.423Z,100872.34
2023-02-18T18:33:17.078Z,100871.09
2023-02-18T18:35:46.903Z,100869.06
2023-02-18T18:38:14.821Z,100861.22
2023-02-18T18:40:42.845Z,100866.16
2023-02-18T18:43:17.055Z,100860.41
2023-02-18T18:45:46.443Z,100861.84
2023-02-18T18:48:14.373Z,100850.69
2023-02-18T18:50:42.323Z,100862.06
2023-02-18T18:53:17.671Z,100863.25
2023-02-18T18:55:46.049Z,100866.56
2023-02-18T18:58:13.729Z,100859.13
2023-02-18T19:00:43.837Z,100861.41
2023-02-18T19:03:13.595Z,100861.19
2023-02-18T19:05:43.044Z,100865.94
2023-02-18T19:08:12.780Z,100866.97
2023-02-18T19:10:42.422Z,100859.72
2023-02-18T19:13:13.712Z,100862.84
2023-02-18T19:15:41.844Z,100856.63
2023-02-18T19:18:16.682Z,100858.69
2023-02-18T19:20:44.631Z,100848.38
2023-02-18T19:23:12.884Z,100852.31
2023-02-18T19:25:41.546Z,100843.84
2023-02-18T19:28:13.646Z,100850.88
2023-02-18T19:30:42.555Z,100841.78
2023-02-18T19:33:12.182Z,100842.41
2023-02-18T19:35:42.135Z,100846.31
2023-02-18T19:38:11.222Z,100857.84
2023-02-18T19:40:39.440Z,100843.00
2023-02-18T19:43:08.097Z,100847.56
2023-02-18T19:45:36.308Z,100850.22
2023-02-18T19:48:04.123Z,100852.84
2023-02-18T19:50:32.568Z,100840.34
2023-02-18T19:53:02.021Z,100843.22
2023-02-18T19:55:29.838Z,100834.38
2023-02-18T19:57:57.496Z,100838.88
2023-02-18T20:00:25.190Z,100847.97
2023-02-18T20:02:52.924Z,100840.13
2023-02-18T20:05:20.873Z,100826.50
2023-02-18T20:07:48.558Z,100831.88
2023-02-18T20:10:20.059Z,100821.16
2023-02-18T20:12:52.574Z,100819.50
2023-02-18T20:15:20.765Z,100819.50
2023-02-18T20:17:48.485Z,100826.50
2023-02-18T20:20:16.241Z,100833.94
2023-02-18T20:22:44.053Z,100827.94
2023-02-18T20:25:11.748Z,100826.28
2023-02-18T20:27:51.100Z,100816.38
2023-02-18T20:30:27.329Z,100820.72
2023-02-18T20:32:55.050Z,100825.06
2023-02-18T20:35:22.743Z,100815.59
2023-02-18T20:37:50.420Z,100815.78
2023-02-18T20:40:18.544Z,100817.28
2023-02-18T20:42:47.590Z,100817.66
2023-02-18T20:45:15.364Z,100824.09
2023-02-18T20:47:43.322Z,100826.13
2023-02-18T20:50:11.076Z,100817.09
2023-02-18T20:52:38.792Z,100817.69
2023-02-18T20:55:07.050Z,100816.06
2023-02-18T20:57:34.982Z,100819.56
2023-02-18T21:00:05.937Z,100814.66
2023-02-18T21:02:33.752Z,100807.84
2023-02-18T21:05:01.520Z,100800.63
2023-02-18T21:07:29.176Z,100794.41
2023-02-18T21:09:57.085Z,100793.63
2023-02-18T21:12:24.769Z,100801.88
2023-02-18T21:14:52.423Z,100792.41
2023-02-18T21:17:22.079Z,100799.41
2023-02-18T21:19:49.765Z,100790.34
2023-02-18T21:22:17.604Z,100785.78
2023-02-18T21:24:45.273Z,100795.91
2023-02-18T21:27:12.934Z,100787.06
2023-02-18T21:29:40.579Z,100782.50
2023-02-18T21:32:08.484Z,100778.81
2023-02-18T21:34:37.601Z,100769.94
2023-02-18T21:37:05.293Z,100768.31
2023-02-18T21:39:32.948Z,100780.44
2023-02-18T21:42:03.619Z,100770.59
2023-02-18T21:44:41.748Z,100764.81
2023-02-18T21:47:10.197Z,100768.31
2023-02-18T21:49:39.585Z,100766.22
2023-02-18T21:52:09.493Z,100764.81
2023-02-18T21:54:40.303Z,100761.09
2023-02-18T21:57:09.992Z,100757.38
2023-02-18T21:59:38.440Z,100759.44
2023-02-18T22:02:07.338Z,100763.56
2023-02-18T22:04:36.136Z,100760.88
2023-02-18T22:07:05.380Z,100761.69
2023-02-18T22:09:33.268Z,100756.94
2023-02-18T22:12:01.044Z,100755.53
2023-02-18T22:14:28.773Z,100751.59
2023-02-18T22:16:56.798Z,100750.16
2023-02-18T22:19:24.780Z,100746.25
2023-02-18T22:21:52.459Z,100743.56
2023-02-18T22:24:21.540Z,100742.53
2023-02-18T22:26:50.349Z,100737.59
2023-02-18T22:29:19.564Z,100735.53
2023-02-18T22:31:48.136Z,100734.91
2023-02-18T22:34:16.086Z,100723.19
2023-02-18T22:36:44.210Z,100726.06
2023-02-18T22:39:12.878Z,100712.88
2023-02-18T22:41:42.204Z,100708.53
2023-02-18T22:44:13.194Z,100706.69
2023-02-18T22:46:41.052Z,100706.28
2023-02-18T22:49:09.219Z,100688.13
2023-02-18T22:51:38.765Z,100674.94
2023-02-18T22:54:07.600Z,100678.66
2023-02-18T22:56:35.356Z,100680.69
2023-02-18T22:59:04.506Z,100688.53
2023-02-18T23:01:34.358Z,100676.16
2023-02-18T23:04:05.002Z,100676.56
2023-02-18T23:06:32.747Z,100668.97
2023-02-18T23:09:00.466Z,100656.41
2023-02-18T23:11:28.698Z,100660.09
2023-02-18T23:14:19.875Z,100667.91
2023-02-18T23:17:07.884Z,100667.50
2023-02-18T23:19:36.849Z,100660.31
2023-02-18T23:22:05.010Z,100666.28
2023-02-18T23:24:33.716Z,100658.25
2023-02-18T23:27:01.406Z,100650.22
2023-02-18T23:29:29.189Z,100651.41
2023-02-18T23:31:58.363Z,100655.53
2023-02-18T23:34:26.144Z,100661.06
2023-02-18T23:36:53.931Z,100657.00
2023-02-18T23:39:23.305Z,100656.38
2023-02-18T23:41:51.677Z,100655.13
2023-02-18T23:44:20.903Z,100646.47
2023-02-18T23:46:48.857Z,100640.28
2023-02-18T23:49:19.924Z,100644.34
2023-02-18T23:51:47.566Z,100645.19
2023-02-18T23:54:15.347Z,100644.34
2023-02-18T23:56:43.151Z,100644.72
2023-02-18T23:59:11.805Z,100639.00
